sensor_id;sensor_type;location;lat;lon;timestamp;pressure;altitude;pressure_sealevel;temperature
27826;BMP280;15077;49.704;9.908;2022-12-29T00:02:14;97574.91;;;12.97
27826;BMP280;15077;49.704;9.908;2022-12-29T00:04:41;97579.19;;;12.96
27826;BMP280;15077;49.704;9.908;2022-12-29T00:07:07;97574.09;;;12.96
27826;BMP280;15077;49.704;9.908;2022-12-29T00:09:34;97568.22;;;12.96
27826;BMP280;15077;49.704;9.908;2022-12-29T00:12:01;97556.38;;;12.95
27826;BMP280;15077;49.704;9.908;2022-12-29T00:14:28;97566.66;;;12.93
27826;BMP280;15077;49.704;9.908;2022-12-29T00:17:13;97564.28;;;12.90
27826;BMP280;15077;49.704;9.908;2022-12-29T00:19:38;97562.63;;;12.89
27826;BMP280;15077;49.704;9.908;2022-12-29T00:22:23;97556.84;;;12.87
27826;BMP280;15077;49.704;9.908;2022-12-29T00:25:10;97555.19;;;12.86
27826;BMP280;15077;49.704;9.908;2022-12-29T00:27:56;97551.00;;;12.85
27826;BMP280;15077;49.704;9.908;2022-12-29T00:30:41;97551.94;;;12.84
27826;BMP280;15077;49.704;9.908;2022-12-29T00:33:30;97551.00;;;12.85
27826;BMP280;15077;49.704;9.908;2022-12-29T00:36:36;97540.97;;;12.82
27826;BMP280;15077;49.704;9.908;2022-12-29T00:39:11;97545.09;;;12.85
27826;BMP280;15077;49.704;9.908;2022-12-29T00:41:56;97544.28;;;12.84
27826;BMP280;15077;49.704;9.908;2022-12-29T00:45:03;97537.56;;;12.83
27826;BMP280;15077;49.704;9.908;2022-12-29T00:47:29;97536.59;;;12.86
27826;BMP280;15077;49.704;9.908;2022-12-29T00:49:55;97528.88;;;12.87
27826;BMP280;15077;49.704;9.908;2022-12-29T00:52:21;97533.78;;;12.90
27826;BMP280;15077;49.704;9.908;2022-12-29T00:54:46;97525.31;;;12.90
27826;BMP280;15077;49.704;9.908;2022-12-29T00:57:12;97535.41;;;12.91
27826;BMP280;15077;49.704;9.908;2022-12-29T00:59:42;97526.84;;;12.92
27826;BMP280;15077;49.704;9.908;2022-12-29T01:02:11;97533.59;;;12.93
27826;BMP280;15077;49.704;9.908;2022-12-29T01:04:39;97534.41;;;12.94
27826;BMP280;15077;49.704;9.908;2022-12-29T01:07:05;97542.88;;;12.94
27826;BMP280;15077;49.704;9.908;2022-12-29T01:09:31;97539.41;;;12.95
27826;BMP280;15077;49.704;9.908;2022-12-29T01:12:16;97540.31;;;12.94
27826;BMP280;15077;49.704;9.908;2022-12-29T01:14:42;97541.94;;;12.95
27826;BMP280;15077;49.704;9.908;2022-12-29T01:17:10;97547.69;;;12.99
27826;BMP280;15077;49.704;9.908;2022-12-29T01:19:36;97538.31;;;12.99
27826;BMP280;15077;49.704;9.908;2022-12-29T01:22:02;97543.41;;;12.99
27826;BMP280;15077;49.704;9.908;2022-12-29T01:24:28;97542.59;;;12.99
27826;BMP280;15077;49.704;9.908;2022-12-29T01:26:54;97546.75;;;13.00
27826;BMP280;15077;49.704;9.908;2022-12-29T01:29:20;97546.66;;;13.01
27826;BMP280;15077;49.704;9.908;2022-12-29T01:31:46;97548.22;;;13.04
27826;BMP280;15077;49.704;9.908;2022-12-29T01:34:12;97553.22;;;13.05
27826;BMP280;15077;49.704;9.908;2022-12-29T01:36:38;97546.31;;;13.07
27826;BMP280;15077;49.704;9.908;2022-12-29T01:39:04;97543.59;;;13.10
27826;BMP280;15077;49.704;9.908;2022-12-29T01:41:30;97548.56;;;13.11
27826;BMP280;15077;49.704;9.908;2022-12-29T01:43:59;97556.88;;;13.15
27826;BMP280;15077;49.704;9.908;2022-12-29T01:46:42;97554.31;;;13.15
27826;BMP280;15077;49.704;9.908;2022-12-29T01:49:18;97550.84;;;13.16
27826;BMP280;15077;49.704;9.908;2022-12-29T01:51:55;97550.75;;;13.17
27826;BMP280;15077;49.704;9.908;2022-12-29T01:54:36;97543.13;;;13.17
27826;BMP280;15077;49.704;9.908;2022-12-29T01:57:21;97553.31;;;13.17
27826;BMP280;15077;49.704;9.908;2022-12-29T02:00:08;97552.31;;;13.20
27826;BMP280;15077;49.704;9.908;2022-12-29T02:02:35;97552.13;;;13.23
27826;BMP280;15077;49.704;9.908;2022-12-29T02:05:11;97546.88;;;13.26
27826;BMP280;15077;49.704;9.908;2022-12-29T02:07:39;97556.06;;;13.28
27826;BMP280;15077;49.704;9.908;2022-12-29T02:10:06;97546.50;;;13.32
27826;BMP280;15077;49.704;9.908;2022-12-29T02:12:32;97542.03;;;13.35
27826;BMP280;15077;49.704;9.908;2022-12-29T02:15:02;97550.22;;;13.40
27826;BMP280;15077;49.704;9.908;2022-12-29T02:20:23;97544.78;;;13.46
27826;BMP280;15077;49.704;9.908;2022-12-29T02:26:40;97536.06;;;13.50
27826;BMP280;15077;49.704;9.908;2022-12-29T02:32:35;97540.31;;;13.50
27826;BMP280;15077;49.704;9.908;2022-12-29T02:41:49;97531.75;;;13.51
27826;BMP280;15077;49.704;9.908;2022-12-29T02:45:04;97522.47;;;13.50
27826;BMP280;15077;49.704;9.908;2022-12-29T02:47:57;97518.84;;;13.54
27826;BMP280;15077;49.704;9.908;2022-12-29T02:51:34;97520.78;;;13.50
27826;BMP280;15077;49.704;9.908;2022-12-29T02:53:40;97525.03;;;13.50
27826;BMP280;15077;49.704;9.908;2022-12-29T02:56:24;97528.50;;;13.49
27826;BMP280;15077;49.704;9.908;2022-12-29T02:58:50;97524.22;;;13.49
27826;BMP280;15077;49.704;9.908;2022-12-29T03:07:23;97517.75;;;13.44
27826;BMP280;15077;49.704;9.908;2022-12-29T03:10:15;97524.59;;;13.43
27826;BMP280;15077;49.704;9.908;2022-12-29T03:13:02;97524.59;;;13.43
27826;BMP280;15077;49.704;9.908;2022-12-29T03:16:18;97524.59;;;13.43
27826;BMP280;15077;49.704;9.908;2022-12-29T03:19:15;97521.75;;;13.48
27826;BMP280;15077;49.704;9.908;2022-12-29T03:21:50;97526.84;;;13.48
27826;BMP280;15077;49.704;9.908;2022-12-29T03:24:41;97501.31;;;13.49
27826;BMP280;15077;49.704;9.908;2022-12-29T03:27:10;97507.19;;;13.50
27826;BMP280;15077;49.704;9.908;2022-12-29T03:29:47;97500.41;;;13.50
27826;BMP280;15077;49.704;9.908;2022-12-29T03:32:19;97507.94;;;13.52
27826;BMP280;15077;49.704;9.908;2022-12-29T03:34:48;97508.75;;;13.52
27826;BMP280;15077;49.704;9.908;2022-12-29T03:37:29;97507.13;;;13.51
27826;BMP280;15077;49.704;9.908;2022-12-29T03:39:57;97505.41;;;13.52
27826;BMP280;15077;49.704;9.908;2022-12-29T03:42:26;97506.13;;;13.54
27826;BMP280;15077;49.704;9.908;2022-12-29T03:44:56;97508.56;;;13.55
27826;BMP280;15077;49.704;9.908;2022-12-29T03:47:24;97504.28;;;13.56
27826;BMP280;15077;49.704;9.908;2022-12-29T03:49:51;97494.09;;;13.56
27826;BMP280;15077;49.704;9.908;2022-12-29T03:52:17;97490.66;;;13.57
27826;BMP280;15077;49.704;9.908;2022-12-29T03:54:44;97485.47;;;13.58
27826;BMP280;15077;49.704;9.908;2022-12-29T03:57:11;97487.91;;;13.59
27826;BMP280;15077;49.704;9.908;2022-12-29T03:59:37;97487.72;;;13.62
27826;BMP280;15077;49.704;9.908;2022-12-29T04:02:02;97488.44;;;13.64
27826;BMP280;15077;49.704;9.908;2022-12-29T04:04:28;97489.28;;;13.65
27826;BMP280;15077;49.704;9.908;2022-12-29T04:06:54;97489.19;;;13.66
27826;BMP280;15077;49.704;9.908;2022-12-29T04:09:19;97490.00;;;13.67
27826;BMP280;15077;49.704;9.908;2022-12-29T04:11:45;97474.63;;;13.68
27826;BMP280;15077;49.704;9.908;2022-12-29T04:14:11;97472.78;;;13.70
27826;BMP280;15077;49.704;9.908;2022-12-29T04:16:36;97479.53;;;13.71
27826;BMP280;15077;49.704;9.908;2022-12-29T04:19:05;97476.78;;;13.74
27826;BMP280;15077;49.704;9.908;2022-12-29T04:21:31;97478.34;;;13.77
27826;BMP280;15077;49.704;9.908;2022-12-29T04:23:57;97475.59;;;13.80
27826;BMP280;15077;49.704;9.908;2022-12-29T04:26:22;97473.66;;;13.83
27826;BMP280;15077;49.704;9.908;2022-12-29T04:28:48;97473.47;;;13.86
27826;BMP280;15077;49.704;9.908;2022-12-29T04:31:14;97476.75;;;13.88
27826;BMP280;15077;49.704;9.908;2022-12-29T04:33:40;97478.38;;;13.89
27826;BMP280;15077;49.704;9.908;2022-12-29T04:36:06;97468.06;;;13.91
27826;BMP280;15077;49.704;9.908;2022-12-29T04:38:32;97473.06;;;13.92
27826;BMP280;15077;49.704;9.908;2022-12-29T04:41:02;97464.44;;;13.95
27826;BMP280;15077;49.704;9.908;2022-12-29T04:43:28;97461.88;;;13.95
27826;BMP280;15077;49.704;9.908;2022-12-29T04:45:54;97455.78;;;13.97
27826;BMP280;15077;49.704;9.908;2022-12-29T04:48:20;97456.50;;;13.99
27826;BMP280;15077;49.704;9.908;2022-12-29T04:50:49;97447.00;;;14.01
27826;BMP280;15077;49.704;9.908;2022-12-29T04:53:16;97463.25;;;14.00
27826;BMP280;15077;49.704;9.908;2022-12-29T04:55:42;97462.41;;;14.00
27826;BMP280;15077;49.704;9.908;2022-12-29T04:58:08;97453.16;;;13.99
27826;BMP280;15077;49.704;9.908;2022-12-29T05:00:34;97459.84;;;14.00
27826;BMP280;15077;49.704;9.908;2022-12-29T05:03:00;97453.03;;;14.00
27826;BMP280;15077;49.704;9.908;2022-12-29T05:05:26;97455.59;;;14.00
27826;BMP280;15077;49.704;9.908;2022-12-29T05:07:52;97461.50;;;14.01
27826;BMP280;15077;49.704;9.908;2022-12-29T05:10:18;97453.03;;;14.00
27826;BMP280;15077;49.704;9.908;2022-12-29T05:12:43;97453.03;;;14.00
27826;BMP280;15077;49.704;9.908;2022-12-29T05:15:11;97443.66;;;14.01
27826;BMP280;15077;49.704;9.908;2022-12-29T05:17:36;97450.50;;;14.00
27826;BMP280;15077;49.704;9.908;2022-12-29T05:20:04;97436.81;;;14.01
27826;BMP280;15077;49.704;9.908;2022-12-29T05:22:30;97444.38;;;14.03
27826;BMP280;15077;49.704;9.908;2022-12-29T05:24:56;97436.63;;;14.04
27826;BMP280;15077;49.704;9.908;2022-12-29T05:27:22;97434.84;;;14.06
27826;BMP280;15077;49.704;9.908;2022-12-29T05:29:48;97435.66;;;14.07
27826;BMP280;15077;49.704;9.908;2022-12-29T05:32:13;97438.09;;;14.08
27826;BMP280;15077;49.704;9.908;2022-12-29T05:34:39;97441.34;;;14.10
27826;BMP280;15077;49.704;9.908;2022-12-29T05:37:05;97432.00;;;14.10
27826;BMP280;15077;49.704;9.908;2022-12-29T05:39:30;97438.81;;;14.10
27826;BMP280;15077;49.704;9.908;2022-12-29T05:41:56;97442.09;;;14.12
27826;BMP280;15077;49.704;9.908;2022-12-29T05:44:22;97434.44;;;14.12
27826;BMP280;15077;49.704;9.908;2022-12-29T05:46:48;97438.63;;;14.13
27826;BMP280;15077;49.704;9.908;2022-12-29T05:49:14;97437.72;;;14.14
27826;BMP280;15077;49.704;9.908;2022-12-29T05:51:39;97441.91;;;14.15
27826;BMP280;15077;49.704;9.908;2022-12-29T05:54:05;97440.97;;;14.16
27826;BMP280;15077;49.704;9.908;2022-12-29T05:56:31;97436.72;;;14.16
27826;BMP280;15077;49.704;9.908;2022-12-29T05:58:57;97449.34;;;14.18
27826;BMP280;15077;49.704;9.908;2022-12-29T06:01:22;97445.88;;;14.19
27826;BMP280;15077;49.704;9.908;2022-12-29T06:03:48;97451.69;;;14.21
27826;BMP280;15077;49.704;9.908;2022-12-29T06:06:14;97448.31;;;14.20
27826;BMP280;15077;49.704;9.908;2022-12-29T06:08:40;97449.16;;;14.21
27826;BMP280;15077;49.704;9.908;2022-12-29T06:11:06;97447.41;;;14.21
27826;BMP280;15077;49.704;9.908;2022-12-29T06:13:31;97446.50;;;14.22
27826;BMP280;15077;49.704;9.908;2022-12-29T06:15:57;97451.50;;;14.24
27826;BMP280;15077;49.704;9.908;2022-12-29T06:18:23;97441.09;;;14.27
27826;BMP280;15077;49.704;9.908;2022-12-29T06:20:49;97443.56;;;14.28
27826;BMP280;15077;49.704;9.908;2022-12-29T06:23:15;97443.47;;;14.30
27826;BMP280;15077;49.704;9.908;2022-12-29T06:25:42;97456.00;;;14.33
27826;BMP280;15077;49.704;9.908;2022-12-29T06:28:07;97462.63;;;14.35
27826;BMP280;15077;49.704;9.908;2022-12-29T06:30:33;97459.78;;;14.40
27826;BMP280;15077;49.704;9.908;2022-12-29T06:33:00;97466.31;;;14.44
27826;BMP280;15077;49.704;9.908;2022-12-29T06:35:25;97456.84;;;14.46
27826;BMP280;15077;49.704;9.908;2022-12-29T06:37:51;97459.19;;;14.49
27826;BMP280;15077;49.704;9.908;2022-12-29T06:40:17;97457.34;;;14.51
27826;BMP280;15077;49.704;9.908;2022-12-29T06:42:43;97447.84;;;14.53
27826;BMP280;15077;49.704;9.908;2022-12-29T06:45:09;97448.59;;;14.55
27826;BMP280;15077;49.704;9.908;2022-12-29T06:47:35;97454.28;;;14.58
27826;BMP280;15077;49.704;9.908;2022-12-29T06:50:02;97446.53;;;14.59
27826;BMP280;15077;49.704;9.908;2022-12-29T06:52:28;97449.09;;;14.59
27826;BMP280;15077;49.704;9.908;2022-12-29T06:54:55;97444.69;;;14.61
27826;BMP280;15077;49.704;9.908;2022-12-29T06:57:21;97442.03;;;14.63
27826;BMP280;15077;49.704;9.908;2022-12-29T06:59:47;97449.59;;;14.64
27826;BMP280;15077;49.704;9.908;2022-12-29T07:02:13;97447.66;;;14.68
27826;BMP280;15077;49.704;9.908;2022-12-29T07:04:40;97437.38;;;14.69
27826;BMP280;15077;49.704;9.908;2022-12-29T07:07:06;97444.06;;;14.70
27826;BMP280;15077;49.704;9.908;2022-12-29T07:09:31;97439.81;;;14.71
27826;BMP280;15077;49.704;9.908;2022-12-29T07:11:57;97440.72;;;14.70
27826;BMP280;15077;49.704;9.908;2022-12-29T07:14:23;97446.63;;;14.70
27826;BMP280;15077;49.704;9.908;2022-12-29T07:16:49;97447.47;;;14.71
27826;BMP280;15077;49.704;9.908;2022-12-29T07:19:14;97445.00;;;14.69
27826;BMP280;15077;49.704;9.908;2022-12-29T07:21:40;97441.63;;;14.69
27826;BMP280;15077;49.704;9.908;2022-12-29T07:24:07;97447.56;;;14.69
27826;BMP280;15077;49.704;9.908;2022-12-29T07:26:33;97446.72;;;14.69
27826;BMP280;15077;49.704;9.908;2022-12-29T07:29:00;97449.19;;;14.70
27826;BMP280;15077;49.704;9.908;2022-12-29T07:31:26;97450.81;;;14.71
27826;BMP280;15077;49.704;9.908;2022-12-29T07:33:52;97446.53;;;14.72
27826;BMP280;15077;49.704;9.908;2022-12-29T07:36:18;97449.91;;;14.72
27826;BMP280;15077;49.704;9.908;2022-12-29T07:38:44;97456.63;;;14.73
27826;BMP280;15077;49.704;9.908;2022-12-29T07:41:09;97460.81;;;14.74
27826;BMP280;15077;49.704;9.908;2022-12-29T07:43:35;97463.25;;;14.76
27826;BMP280;15077;49.704;9.908;2022-12-29T07:46:01;97455.50;;;14.77
27826;BMP280;15077;49.704;9.908;2022-12-29T07:48:27;97451.03;;;14.81
27826;BMP280;15077;49.704;9.908;2022-12-29T07:50:53;97455.31;;;14.80
27826;BMP280;15077;49.704;9.908;2022-12-29T07:53:19;97446.84;;;14.80
27826;BMP280;15077;49.704;9.908;2022-12-29T07:55:45;97441.84;;;14.78
27826;BMP280;15077;49.704;9.908;2022-12-29T07:58:11;97435.84;;;14.79
27826;BMP280;15077;49.704;9.908;2022-12-29T08:00:38;97437.34;;;14.82
27826;BMP280;15077;49.704;9.908;2022-12-29T08:03:05;97433.88;;;14.83
27826;BMP280;15077;49.704;9.908;2022-12-29T08:05:34;97437.13;;;14.85
27826;BMP280;15077;49.704;9.908;2022-12-29T08:08:00;97441.22;;;14.87
27826;BMP280;15077;49.704;9.908;2022-12-29T08:10:26;97443.69;;;14.89
27826;BMP280;15077;49.704;9.908;2022-12-29T08:12:52;97446.94;;;14.91
27826;BMP280;15077;49.704;9.908;2022-12-29T08:15:18;97439.16;;;14.92
27826;BMP280;15077;49.704;9.908;2022-12-29T08:17:43;97433.06;;;14.95
27826;BMP280;15077;49.704;9.908;2022-12-29T08:20:09;97435.09;;;15.02
27826;BMP280;15077;49.704;9.908;2022-12-29T08:22:35;97439.97;;;15.05
27826;BMP280;15077;49.704;9.908;2022-12-29T08:25:01;97438.34;;;15.04
27826;BMP280;15077;49.704;9.908;2022-12-29T08:27:27;97453.66;;;15.04
27826;BMP280;15077;49.704;9.908;2022-12-29T08:29:53;97441.63;;;15.06
27826;BMP280;15077;49.704;9.908;2022-12-29T08:32:19;97441.41;;;15.09
27826;BMP280;15077;49.704;9.908;2022-12-29T08:34:45;97443.84;;;15.10
27826;BMP280;15077;49.704;9.908;2022-12-29T08:37:10;97451.41;;;15.12
27826;BMP280;15077;49.704;9.908;2022-12-29T08:39:36;97442.81;;;15.13
27826;BMP280;15077;49.704;9.908;2022-12-29T08:42:02;97444.44;;;15.14
27826;BMP280;15077;49.704;9.908;2022-12-29T08:44:28;97442.72;;;15.14
27826;BMP280;15077;49.704;9.908;2022-12-29T08:46:53;97446.09;;;15.15
27826;BMP280;15077;49.704;9.908;2022-12-29T08:49:19;97451.19;;;15.15
27826;BMP280;15077;49.704;9.908;2022-12-29T08:51:45;97441.78;;;15.15
27826;BMP280;15077;49.704;9.908;2022-12-29T08:54:11;97440.88;;;15.16
27826;BMP280;15077;49.704;9.908;2022-12-29T08:56:36;97443.38;;;15.18
27826;BMP280;15077;49.704;9.908;2022-12-29T08:59:02;97451.72;;;15.20
27826;BMP280;15077;49.704;9.908;2022-12-29T09:01:28;97443.84;;;15.23
27826;BMP280;15077;49.704;9.908;2022-12-29T09:03:55;97447.94;;;15.25
27826;BMP280;15077;49.704;9.908;2022-12-29T09:06:21;97446.94;;;15.28
27826;BMP280;15077;49.704;9.908;2022-12-29T09:08:47;97455.06;;;15.33
27826;BMP280;15077;49.704;9.908;2022-12-29T09:11:22;97447.91;;;15.38
27826;BMP280;15077;49.704;9.908;2022-12-29T09:13:48;97449.31;;;15.42
27826;BMP280;15077;49.704;9.908;2022-12-29T09:16:15;97451.44;;;15.48
27826;BMP280;15077;49.704;9.908;2022-12-29T09:18:42;97459.72;;;15.51
27826;BMP280;15077;49.704;9.908;2022-12-29T09:21:11;97456.13;;;15.53
27826;BMP280;15077;49.704;9.908;2022-12-29T09:23:37;97450.91;;;15.55
27826;BMP280;15077;49.704;9.908;2022-12-29T09:26:04;97457.56;;;15.57
27826;BMP280;15077;49.704;9.908;2022-12-29T09:28:30;97470.13;;;15.60
27826;BMP280;15077;49.704;9.908;2022-12-29T09:30:57;97457.22;;;15.62
27826;BMP280;15077;49.704;9.908;2022-12-29T09:33:24;97462.94;;;15.65
27826;BMP280;15077;49.704;9.908;2022-12-29T09:35:56;97475.50;;;15.68
27826;BMP280;15077;49.704;9.908;2022-12-29T09:38:23;97479.69;;;15.69
27826;BMP280;15077;49.704;9.908;2022-12-29T09:40:53;97487.13;;;15.72
27826;BMP280;15077;49.704;9.908;2022-12-29T09:46:13;97485.38;;;15.73
27826;BMP280;15077;49.704;9.908;2022-12-29T09:48:51;97496.44;;;15.73
27826;BMP280;15077;49.704;9.908;2022-12-29T09:51:23;97485.28;;;15.74
27826;BMP280;15077;49.704;9.908;2022-12-29T09:54:04;97486.22;;;15.73
27826;BMP280;15077;49.704;9.908;2022-12-29T09:56:36;97473.56;;;15.72
27826;BMP280;15077;49.704;9.908;2022-12-29T09:59:15;97476.91;;;15.72
27826;BMP280;15077;49.704;9.908;2022-12-29T10:04:47;97493.88;;;15.73
27826;BMP280;15077;49.704;9.908;2022-12-29T10:16:11;97478.03;;;15.68
27826;BMP280;15077;49.704;9.908;2022-12-29T10:19:16;97479.91;;;15.66
27826;BMP280;15077;49.704;9.908;2022-12-29T10:22:12;97481.53;;;15.67
27826;BMP280;15077;49.704;9.908;2022-12-29T10:24:47;97472.72;;;15.71
27826;BMP280;15077;49.704;9.908;2022-12-29T10:27:17;97482.94;;;15.71
27826;BMP280;15077;49.704;9.908;2022-12-29T10:29:55;97479.38;;;15.74
27826;BMP280;15077;49.704;9.908;2022-12-29T10:32:38;97476.00;;;15.73
27826;BMP280;15077;49.704;9.908;2022-12-29T10:35:36;97474.16;;;15.75
27826;BMP280;15077;49.704;9.908;2022-12-29T10:38:37;97473.34;;;15.75
27826;BMP280;15077;49.704;9.908;2022-12-29T10:41:20;97473.94;;;15.78
27826;BMP280;15077;49.704;9.908;2022-12-29T10:43:51;97480.47;;;15.82
27826;BMP280;15077;49.704;9.908;2022-12-29T10:46:38;97495.78;;;15.82
27826;BMP280;15077;49.704;9.908;2022-12-29T10:49:16;97474.19;;;15.86
27826;BMP280;15077;49.704;9.908;2022-12-29T10:51:50;97463.75;;;15.89
27826;BMP280;15077;49.704;9.908;2022-12-29T10:57:34;97466.41;;;15.88
27826;BMP280;15077;49.704;9.908;2022-12-29T11:00:11;97473.28;;;15.87
27826;BMP280;15077;49.704;9.908;2022-12-29T11:05:57;97455.66;;;15.95
27826;BMP280;15077;49.704;9.908;2022-12-29T11:08:39;97470.94;;;16.07
27826;BMP280;15077;49.704;9.908;2022-12-29T11:11:25;97467.78;;;16.27
27826;BMP280;15077;49.704;9.908;2022-12-29T11:14:19;97471.66;;;16.44
27826;BMP280;15077;49.704;9.908;2022-12-29T11:17:01;97459.28;;;16.61
27826;BMP280;15077;49.704;9.908;2022-12-29T11:19:32;97463.84;;;16.79
27826;BMP280;15077;49.704;9.908;2022-12-29T11:22:24;97463.16;;;16.99
27826;BMP280;15077;49.704;9.908;2022-12-29T11:24:53;97458.88;;;17.21
27826;BMP280;15077;49.704;9.908;2022-12-29T11:27:25;97462.22;;;17.44
27826;BMP280;15077;49.704;9.908;2022-12-29T11:29:53;97455.81;;;17.60
27826;BMP280;15077;49.704;9.908;2022-12-29T11:34:47;97453.09;;;17.72
27826;BMP280;15077;49.704;9.908;2022-12-29T11:37:38;97461.84;;;17.70
27826;BMP280;15077;49.704;9.908;2022-12-29T11:40:19;97450.78;;;17.69
27826;BMP280;15077;49.704;9.908;2022-12-29T11:43:00;97464.28;;;17.71
27826;BMP280;15077;49.704;9.908;2022-12-29T11:45:33;97449.31;;;17.56
27826;BMP280;15077;49.704;9.908;2022-12-29T11:48:17;97451.25;;;17.63
27826;BMP280;15077;49.704;9.908;2022-12-29T11:50:57;97448.81;;;17.62
27826;BMP280;15077;49.704;9.908;2022-12-29T11:53:52;97446.88;;;17.54
27826;BMP280;15077;49.704;9.908;2022-12-29T11:56:33;97449.31;;;17.56
27826;BMP280;15077;49.704;9.908;2022-12-29T12:02:30;97467.13;;;17.57
27826;BMP280;15077;49.704;9.908;2022-12-29T12:05:30;97456.63;;;17.60
27826;BMP280;15077;49.704;9.908;2022-12-29T12:11:12;97442.16;;;17.70
27826;BMP280;15077;49.704;9.908;2022-12-29T12:13:58;97465.44;;;17.78
27826;BMP280;15077;49.704;9.908;2022-12-29T12:16:46;97450.13;;;17.88
27826;BMP280;15077;49.704;9.908;2022-12-29T12:19:30;97455.38;;;17.97
27826;BMP280;15077;49.704;9.908;2022-12-29T12:22:33;97446.25;;;18.04
27826;BMP280;15077;49.704;9.908;2022-12-29T12:25:37;97448.78;;;18.15
27826;BMP280;15077;49.704;9.908;2022-12-29T12:28:20;97456.69;;;18.23
27826;BMP280;15077;49.704;9.908;2022-12-29T12:30:52;97442.88;;;18.14
27826;BMP280;15077;49.704;9.908;2022-12-29T12:33:35;97445.91;;;18.29
27826;BMP280;15077;49.704;9.908;2022-12-29T12:36:48;97450.56;;;18.35
27826;BMP280;15077;49.704;9.908;2022-12-29T12:39:33;97443.75;;;18.45
27826;BMP280;15077;49.704;9.908;2022-12-29T12:42:56;97446.06;;;18.48
27826;BMP280;15077;49.704;9.908;2022-12-29T13:00:07;97454.47;;;18.18
27826;BMP280;15077;49.704;9.908;2022-12-29T13:03:17;97458.13;;;18.05
27826;BMP280;15077;49.704;9.908;2022-12-29T13:12:11;97477.13;;;17.60
27826;BMP280;15077;49.704;9.908;2022-12-29T13:15:07;97470.63;;;17.46
27826;BMP280;15077;49.704;9.908;2022-12-29T13:18:00;97474.72;;;17.37
27826;BMP280;15077;49.704;9.908;2022-12-29T13:20:47;97468.78;;;17.26
27826;BMP280;15077;49.704;9.908;2022-12-29T13:23:44;97484.34;;;17.12
27826;BMP280;15077;49.704;9.908;2022-12-29T13:33:04;97490.25;;;16.91
27826;BMP280;15077;49.704;9.908;2022-12-29T13:38:42;97497.56;;;16.73
27826;BMP280;15077;49.704;9.908;2022-12-29T13:41:36;97496.63;;;16.63
27826;BMP280;15077;49.704;9.908;2022-12-29T13:44:04;97489.84;;;16.62
27826;BMP280;15077;49.704;9.908;2022-12-29T13:46:43;97495.19;;;16.59
27826;BMP280;15077;49.704;9.908;2022-12-29T13:49:19;97494.72;;;16.54
27826;BMP280;15077;49.704;9.908;2022-12-29T13:51:56;97498.44;;;16.51
27826;BMP280;15077;49.704;9.908;2022-12-29T13:54:39;97494.47;;;16.47
27826;BMP280;15077;49.704;9.908;2022-12-29T13:57:34;97503.53;;;16.40
27826;BMP280;15077;49.704;9.908;2022-12-29T14:00:14;97499.66;;;16.34
27826;BMP280;15077;49.704;9.908;2022-12-29T14:07:44;97492.75;;;16.24
27826;BMP280;15077;49.704;9.908;2022-12-29T14:13:23;97502.38;;;16.20
27826;BMP280;15077;49.704;9.908;2022-12-29T14:15:56;97502.06;;;16.25
27826;BMP280;15077;49.704;9.908;2022-12-29T14:18:31;97506.47;;;16.23
27826;BMP280;15077;49.704;9.908;2022-12-29T14:21:22;97495.84;;;16.16
27826;BMP280;15077;49.704;9.908;2022-12-29T14:23:53;97502.72;;;16.16
27826;BMP280;15077;49.704;9.908;2022-12-29T14:29:16;97518.66;;;16.07
27826;BMP280;15077;49.704;9.908;2022-12-29T14:31:59;97515.53;;;16.03
27826;BMP280;15077;49.704;9.908;2022-12-29T14:34:30;97520.75;;;16.02
27826;BMP280;15077;49.704;9.908;2022-12-29T14:37:02;97524.53;;;15.97
27826;BMP280;15077;49.704;9.908;2022-12-29T14:45:00;97518.91;;;15.81
27826;BMP280;15077;49.704;9.908;2022-12-29T14:47:32;97518.91;;;15.81
27826;BMP280;15077;49.704;9.908;2022-12-29T14:53:03;97523.38;;;15.77
27826;BMP280;15077;49.704;9.908;2022-12-29T14:55:47;97523.59;;;15.74
27826;BMP280;15077;49.704;9.908;2022-12-29T14:58:27;97523.00;;;15.71
27826;BMP280;15077;49.704;9.908;2022-12-29T15:00:55;97513.81;;;15.68
27826;BMP280;15077;49.704;9.908;2022-12-29T15:03:41;97531.91;;;15.65
27826;BMP280;15077;49.704;9.908;2022-12-29T15:06:13;97535.38;;;15.64
27826;BMP280;15077;49.704;9.908;2022-12-29T15:08:47;97535.38;;;15.64
27826;BMP280;15077;49.704;9.908;2022-12-29T15:11:21;97542.94;;;15.66
27826;BMP280;15077;49.704;9.908;2022-12-29T15:13:48;97551.53;;;15.65
27826;BMP280;15077;49.704;9.908;2022-12-29T15:16:33;97556.97;;;15.60
27826;BMP280;15077;49.704;9.908;2022-12-29T15:19:02;97555.22;;;15.61
27826;BMP280;15077;49.704;9.908;2022-12-29T15:21:34;97562.06;;;15.60
27826;BMP280;15077;49.704;9.908;2022-12-29T15:24:00;97573.31;;;15.46
27826;BMP280;15077;49.704;9.908;2022-12-29T15:26:41;97572.91;;;15.52
27826;BMP280;15077;49.704;9.908;2022-12-29T15:29:41;97585.78;;;15.50
27826;BMP280;15077;49.704;9.908;2022-12-29T15:32:28;97594.34;;;15.49
27826;BMP280;15077;49.704;9.908;2022-12-29T15:34:57;97591.00;;;15.49
27826;BMP280;15077;49.704;9.908;2022-12-29T15:37:33;97603.03;;;15.47
27826;BMP280;15077;49.704;9.908;2022-12-29T15:40:01;97621.13;;;15.44
27826;BMP280;15077;49.704;9.908;2022-12-29T15:45:15;97626.63;;;15.38
27826;BMP280;15077;49.704;9.908;2022-12-29T15:47:46;97631.94;;;15.35
27826;BMP280;15077;49.704;9.908;2022-12-29T15:50:28;97636.03;;;15.25
27826;BMP280;15077;49.704;9.908;2022-12-29T15:52:55;97633.13;;;15.17
27826;BMP280;15077;49.704;9.908;2022-12-29T15:55:31;97639.63;;;15.08
27826;BMP280;15077;49.704;9.908;2022-12-29T15:58:00;97652.91;;;15.01
27826;BMP280;15077;49.704;9.908;2022-12-29T16:00:31;97633.81;;;14.94
27826;BMP280;15077;49.704;9.908;2022-12-29T16:03:05;97634.94;;;14.90
27826;BMP280;15077;49.704;9.908;2022-12-29T16:05:38;97615.72;;;14.85
27826;BMP280;15077;49.704;9.908;2022-12-29T16:08:31;97613.16;;;14.72
27826;BMP280;15077;49.704;9.908;2022-12-29T16:11:20;97606.50;;;14.70
27826;BMP280;15077;49.704;9.908;2022-12-29T16:13:57;97613.00;;;14.61
27826;BMP280;15077;49.704;9.908;2022-12-29T16:16:38;97605.84;;;14.54
27826;BMP280;15077;49.704;9.908;2022-12-29T16:19:39;97601.44;;;14.44
27826;BMP280;15077;49.704;9.908;2022-12-29T16:22:14;97604.94;;;14.29
27826;BMP280;15077;49.704;9.908;2022-12-29T16:24:48;97601.38;;;14.31
27826;BMP280;15077;49.704;9.908;2022-12-29T16:27:31;97592.47;;;14.24
27826;BMP280;15077;49.704;9.908;2022-12-29T16:30:06;97594.41;;;14.21